sensor_id;sensor_type;location;lat;lon;timestamp;pressure;altitude;pressure_sealevel;temperature;humidity
47218;BME280;47282;53.362;-2.222;2022-10-17T12:24:30;100587.44;;;29.12;31.46
47218;BME280;47282;53.362;-2.222;2022-10-17T12:27:22;100585.57;;;30.22;29.99
47218;BME280;47282;53.362;-2.222;2022-10-17T12:29:58;100582.13;;;30.60;28.40
47218;BME280;47282;53.362;-2.222;2022-10-17T12:32:26;100582.31;;;30.43;27.32
47218;BME280;47282;53.362;-2.222;2022-10-17T12:34:55;100583.53;;;30.33;27.47
47218;BME280;47282;53.362;-2.222;2022-10-17T12:38:29;100587.83;;;30.23;27.09
47218;BME280;47282;53.362;-2.222;2022-10-17T12:40:58;100580.53;;;29.50;27.16
47218;BME280;47282;53.362;-2.222;2022-10-17T12:43:48;100579.72;;;26.93;29.05
47218;BME280;47282;53.362;-2.222;2022-10-17T12:46:49;100584.96;;;25.63;29.72
47218;BME280;47282;53.362;-2.222;2022-10-17T12:49:35;100587.68;;;25.25;30.26
47218;BME280;47282;53.362;-2.222;2022-10-17T12:52:18;100584.13;;;24.78;30.77
47218;BME280;47282;53.362;-2.222;2022-10-17T12:54:51;100593.81;;;24.80;31.23
47218;BME280;47282;53.362;-2.222;2022-10-17T12:57:26;100590.55;;;24.73;31.16
47218;BME280;47282;53.362;-2.222;2022-10-17T12:59:57;100592.55;;;24.61;30.52
47218;BME280;47282;53.362;-2.222;2022-10-17T13:02:27;100601.86;;;24.32;30.46
47218;BME280;47282;53.362;-2.222;2022-10-17T13:05:04;100626.24;;;24.39;30.42
47218;BME280;47282;53.362;-2.222;2022-10-17T13:07:33;100627.47;;;24.50;30.07
47218;BME280;47282;53.362;-2.222;2022-10-17T13:10:04;100622.02;;;24.57;29.86
47218;BME280;47282;53.362;-2.222;2022-10-17T13:12:35;100640.09;;;24.62;30.13
47218;BME280;47282;53.362;-2.222;2022-10-17T13:15:05;100651.44;;;24.67;30.20
47218;BME280;47282;53.362;-2.222;2022-10-17T13:17:34;100645.40;;;24.67;29.77
47218;BME280;47282;53.362;-2.222;2022-10-17T13:20:02;100639.20;;;24.71;29.44
47218;BME280;47282;53.362;-2.222;2022-10-17T13:22:31;100652.01;;;24.62;28.96
47218;BME280;47282;53.362;-2.222;2022-10-17T13:25:12;100658.72;;;24.75;28.66
47218;BME280;47282;53.362;-2.222;2022-10-17T13:27:41;100661.16;;;24.46;29.13
47218;BME280;47282;53.362;-2.222;2022-10-17T13:30:27;100669.28;;;24.39;29.34
47218;BME280;47282;53.362;-2.222;2022-10-17T13:32:55;100673.01;;;24.41;29.35
47218;BME280;47282;53.362;-2.222;2022-10-17T13:35:27;100676.47;;;24.61;29.35
47218;BME280;47282;53.362;-2.222;2022-10-17T13:37:56;100686.82;;;24.70;29.76
47218;BME280;47282;53.362;-2.222;2022-10-17T13:40:29;100697.77;;;24.49;30.03
47218;BME280;47282;53.362;-2.222;2022-10-17T13:42:58;100700.10;;;24.47;29.68
47218;BME280;47282;53.362;-2.222;2022-10-17T13:45:29;100706.96;;;24.64;29.41
47218;BME280;47282;53.362;-2.222;2022-10-17T13:48:00;100702.76;;;24.28;29.58
47218;BME280;47282;53.362;-2.222;2022-10-17T13:50:33;100706.71;;;24.25;29.39
47218;BME280;47282;53.362;-2.222;2022-10-17T13:53:07;100714.54;;;24.15;29.17
47218;BME280;47282;53.362;-2.222;2022-10-17T13:55:35;100724.33;;;24.33;29.17
47218;BME280;47282;53.362;-2.222;2022-10-17T13:58:19;100728.77;;;24.42;29.06
47218;BME280;47282;53.362;-2.222;2022-10-17T14:00:48;100730.32;;;24.28;29.55
47218;BME280;47282;53.362;-2.222;2022-10-17T14:03:17;100733.83;;;24.24;29.42
47218;BME280;47282;53.362;-2.222;2022-10-17T14:06:06;100737.51;;;23.94;29.75
47218;BME280;47282;53.362;-2.222;2022-10-17T14:08:36;100729.49;;;24.03;29.37
47218;BME280;47282;53.362;-2.222;2022-10-17T14:11:14;100730.47;;;23.88;29.12
47218;BME280;47282;53.362;-2.222;2022-10-17T14:13:48;100737.52;;;23.74;29.65
47218;BME280;47282;53.362;-2.222;2022-10-17T14:16:17;100736.06;;;23.64;29.74
47218;BME280;47282;53.362;-2.222;2022-10-17T14:18:47;100737.39;;;23.60;30.20
47218;BME280;47282;53.362;-2.222;2022-10-17T14:21:21;100746.09;;;23.77;30.19
47218;BME280;47282;53.362;-2.222;2022-10-17T14:23:51;100748.43;;;23.38;30.29
47218;BME280;47282;53.362;-2.222;2022-10-17T14:26:21;100750.75;;;23.32;30.48
47218;BME280;47282;53.362;-2.222;2022-10-17T14:29:02;100754.23;;;23.23;30.43
47218;BME280;47282;53.362;-2.222;2022-10-17T14:31:32;100755.00;;;23.20;30.64
47218;BME280;47282;53.362;-2.222;2022-10-17T14:34:01;100767.48;;;23.60;30.81
47218;BME280;47282;53.362;-2.222;2022-10-17T14:36:33;100758.55;;;23.48;30.85
47218;BME280;47282;53.362;-2.222;2022-10-17T14:39:02;100758.90;;;23.35;30.94
47218;BME280;47282;53.362;-2.222;2022-10-17T14:41:33;100777.75;;;22.98;30.71
47218;BME280;47282;53.362;-2.222;2022-10-17T14:44:04;100780.09;;;23.10;30.99
47218;BME280;47282;53.362;-2.222;2022-10-17T14:46:34;100789.21;;;22.94;31.13
47218;BME280;47282;53.362;-2.222;2022-10-17T14:49:06;100792.11;;;22.53;31.02
47218;BME280;47282;53.362;-2.222;2022-10-17T14:51:34;100794.80;;;22.50;30.75
47218;BME280;47282;53.362;-2.222;2022-10-17T14:54:12;100798.80;;;22.28;30.78
47218;BME280;47282;53.362;-2.222;2022-10-17T14:56:48;100802.42;;;22.07;30.95
47218;BME280;47282;53.362;-2.222;2022-10-17T14:59:17;100801.90;;;22.14;31.28
47218;BME280;47282;53.362;-2.222;2022-10-17T15:01:45;100806.70;;;21.95;31.52
47218;BME280;47282;53.362;-2.222;2022-10-17T15:04:13;100819.56;;;22.05;31.72
47218;BME280;47282;53.362;-2.222;2022-10-17T15:06:41;100821.34;;;21.76;31.70
47218;BME280;47282;53.362;-2.222;2022-10-17T15:09:10;100821.29;;;21.06;32.20
47218;BME280;47282;53.362;-2.222;2022-10-17T15:11:38;100816.27;;;20.69;32.82
47218;BME280;47282;53.362;-2.222;2022-10-17T15:14:06;100822.53;;;20.24;33.03
47218;BME280;47282;53.362;-2.222;2022-10-17T15:16:34;100831.12;;;19.81;33.46
47218;BME280;47282;53.362;-2.222;2022-10-17T15:19:02;100833.99;;;19.26;34.04
47218;BME280;47282;53.362;-2.222;2022-10-17T15:21:30;100836.46;;;19.07;34.51
47218;BME280;47282;53.362;-2.222;2022-10-17T15:23:58;100841.78;;;18.90;35.06
47218;BME280;47282;53.362;-2.222;2022-10-17T15:26:29;100835.87;;;18.56;35.27
47218;BME280;47282;53.362;-2.222;2022-10-17T15:28:59;100846.39;;;18.45;35.66
47218;BME280;47282;53.362;-2.222;2022-10-17T15:31:28;100849.66;;;17.92;35.93
47218;BME280;47282;53.362;-2.222;2022-10-17T15:33:57;100852.04;;;18.08;36.24
47218;BME280;47282;53.362;-2.222;2022-10-17T15:36:26;100856.85;;;17.56;36.70
47218;BME280;47282;53.362;-2.222;2022-10-17T15:38:56;100858.42;;;17.27;37.06
47218;BME280;47282;53.362;-2.222;2022-10-17T15:41:26;100862.03;;;17.27;37.34
47218;BME280;47282;53.362;-2.222;2022-10-17T15:43:55;100873.96;;;17.18;37.75
47218;BME280;47282;53.362;-2.222;2022-10-17T15:46:24;100873.81;;;16.87;38.15
47218;BME280;47282;53.362;-2.222;2022-10-17T15:48:54;100873.38;;;16.83;38.55
47218;BME280;47282;53.362;-2.222;2022-10-17T15:51:23;100873.87;;;16.31;38.81
47218;BME280;47282;53.362;-2.222;2022-10-17T15:53:51;100877.84;;;16.33;39.07
47218;BME280;47282;53.362;-2.222;2022-10-17T15:56:21;100877.78;;;16.09;39.34
47218;BME280;47282;53.362;-2.222;2022-10-17T15:58:50;100875.78;;;15.90;39.62
47218;BME280;47282;53.362;-2.222;2022-10-17T16:01:21;100879.73;;;15.91;39.88
47218;BME280;47282;53.362;-2.222;2022-10-17T16:03:49;100875.74;;;15.71;40.17
47218;BME280;47282;53.362;-2.222;2022-10-17T16:06:18;100874.60;;;15.51;40.48
47218;BME280;47282;53.362;-2.222;2022-10-17T16:08:47;100880.16;;;15.54;40.75
47218;BME280;47282;53.362;-2.222;2022-10-17T16:11:18;100877.91;;;15.14;40.98
47218;BME280;47282;53.362;-2.222;2022-10-17T16:13:52;100882.42;;;15.20;41.20
47218;BME280;47282;53.362;-2.222;2022-10-17T16:16:20;100883.32;;;15.05;41.37
47218;BME280;47282;53.362;-2.222;2022-10-17T16:18:48;100887.01;;;14.90;41.61
47218;BME280;47282;53.362;-2.222;2022-10-17T16:21:18;100891.82;;;14.76;41.79
47218;BME280;47282;53.362;-2.222;2022-10-17T16:23:46;100897.04;;;14.63;42.02
47218;BME280;47282;53.362;-2.222;2022-10-17T16:26:14;100906.38;;;14.52;42.23
47218;BME280;47282;53.362;-2.222;2022-10-17T16:28:42;100916.54;;;14.65;42.45
47218;BME280;47282;53.362;-2.222;2022-10-17T16:31:18;100921.20;;;14.24;42.69
47218;BME280;47282;53.362;-2.222;2022-10-17T16:33:48;100926.33;;;14.12;42.92
47218;BME280;47282;53.362;-2.222;2022-10-17T16:36:17;100936.48;;;14.49;43.15
47218;BME280;47282;53.362;-2.222;2022-10-17T16:38:46;100940.15;;;14.14;43.36
47218;BME280;47282;53.362;-2.222;2022-10-17T16:41:20;100943.21;;;14.02;43.58
47218;BME280;47282;53.362;-2.222;2022-10-17T16:43:50;100958.97;;;14.11;43.85
47218;BME280;47282;53.362;-2.222;2022-10-17T16:46:19;100967.96;;;13.77;44.07
47218;BME280;47282;53.362;-2.222;2022-10-17T16:48:47;100974.43;;;13.85;44.26
47218;BME280;47282;53.362;-2.222;2022-10-17T16:51:17;100978.83;;;13.71;44.60
47218;BME280;47282;53.362;-2.222;2022-10-17T16:53:45;100979.39;;;13.57;44.77
47218;BME280;47282;53.362;-2.222;2022-10-17T16:56:16;100985.42;;;13.43;45.00
47218;BME280;47282;53.362;-2.222;2022-10-17T16:58:45;100989.26;;;13.28;45.26
47218;BME280;47282;53.362;-2.222;2022-10-17T17:01:15;100989.68;;;13.13;45.47
47218;BME280;47282;53.362;-2.222;2022-10-17T17:03:45;100994.22;;;13.19;45.74
47218;BME280;47282;53.362;-2.222;2022-10-17T17:06:16;100993.72;;;12.99;46.00
47218;BME280;47282;53.362;-2.222;2022-10-17T17:08:44;100990.74;;;13.08;46.31
47218;BME280;47282;53.362;-2.222;2022-10-17T17:11:14;100995.83;;;12.65;46.56
47218;BME280;47282;53.362;-2.222;2022-10-17T17:13:43;100998.99;;;12.48;46.80
47218;BME280;47282;53.362;-2.222;2022-10-17T17:16:13;101001.84;;;12.59;47.12
47218;BME280;47282;53.362;-2.222;2022-10-17T17:18:42;101009.15;;;12.18;47.36
47218;BME280;47282;53.362;-2.222;2022-10-17T17:21:11;101018.31;;;12.31;47.60
47218;BME280;47282;53.362;-2.222;2022-10-17T17:23:41;101032.54;;;12.21;47.86
47218;BME280;47282;53.362;-2.222;2022-10-17T17:26:11;101042.56;;;12.36;47.89
47218;BME280;47282;53.362;-2.222;2022-10-17T17:28:40;101050.65;;;12.03;48.04
47218;BME280;47282;53.362;-2.222;2022-10-17T17:31:10;101058.63;;;11.95;48.24
47218;BME280;47282;53.362;-2.222;2022-10-17T17:33:39;101062.54;;;11.87;48.24
47218;BME280;47282;53.362;-2.222;2022-10-17T17:36:12;101068.63;;;11.78;48.36
47218;BME280;47282;53.362;-2.222;2022-10-17T17:38:40;101077.38;;;11.68;48.46
47218;BME280;47282;53.362;-2.222;2022-10-17T17:41:11;101075.80;;;11.60;48.59
47218;BME280;47282;53.362;-2.222;2022-10-17T17:43:40;101081.65;;;11.75;48.69
47218;BME280;47282;53.362;-2.222;2022-10-17T17:46:08;101080.56;;;11.96;48.81
47218;BME280;47282;53.362;-2.222;2022-10-17T17:48:37;101087.14;;;11.93;48.86
47218;BME280;47282;53.362;-2.222;2022-10-17T17:51:07;101097.15;;;11.88;49.05
47218;BME280;47282;53.362;-2.222;2022-10-17T17:53:36;101100.40;;;11.55;49.16
47218;BME280;47282;53.362;-2.222;2022-10-17T17:56:06;101105.21;;;11.48;49.32
47218;BME280;47282;53.362;-2.222;2022-10-17T17:58:35;101103.77;;;11.68;49.46
47218;BME280;47282;53.362;-2.222;2022-10-17T18:01:08;101102.94;;;11.61;49.61
47218;BME280;47282;53.362;-2.222;2022-10-17T18:03:37;101107.99;;;11.29;49.89
47218;BME280;47282;53.362;-2.222;2022-10-17T18:06:06;101113.29;;;11.74;50.18
47218;BME280;47282;53.362;-2.222;2022-10-17T18:08:34;101114.99;;;11.54;50.27
47218;BME280;47282;53.362;-2.222;2022-10-17T18:11:03;101120.77;;;11.55;50.36
47218;BME280;47282;53.362;-2.222;2022-10-17T18:13:31;101122.94;;;11.56;50.50
47218;BME280;47282;53.362;-2.222;2022-10-17T18:16:00;101128.57;;;11.54;50.51
47218;BME280;47282;53.362;-2.222;2022-10-17T18:18:29;101131.74;;;11.52;50.56
47218;BME280;47282;53.362;-2.222;2022-10-17T18:21:00;101135.33;;;11.52;50.77
47218;BME280;47282;53.362;-2.222;2022-10-17T18:23:28;101148.16;;;11.51;50.81
47218;BME280;47282;53.362;-2.222;2022-10-17T18:25:58;101155.81;;;11.49;51.01
47218;BME280;47282;53.362;-2.222;2022-10-17T18:28:26;101157.63;;;11.46;51.00
47218;BME280;47282;53.362;-2.222;2022-10-17T18:30:55;101169.10;;;11.44;51.08
47218;BME280;47282;53.362;-2.222;2022-10-17T18:33:23;101176.31;;;11.41;51.10
47218;BME280;47282;53.362;-2.222;2022-10-17T18:35:51;101182.41;;;11.07;51.44
47218;BME280;47282;53.362;-2.222;2022-10-17T18:38:19;101191.53;;;11.34;51.49
47218;BME280;47282;53.362;-2.222;2022-10-17T18:40:47;101198.59;;;11.55;51.60
47218;BME280;47282;53.362;-2.222;2022-10-17T18:43:15;101199.07;;;11.31;51.79
47218;BME280;47282;53.362;-2.222;2022-10-17T18:45:43;101201.35;;;11.01;51.88
47218;BME280;47282;53.362;-2.222;2022-10-17T18:48:11;101197.94;;;11.21;52.06
47218;BME280;47282;53.362;-2.222;2022-10-17T18:50:39;101201.92;;;11.39;52.08
47218;BME280;47282;53.362;-2.222;2022-10-17T18:53:07;101201.43;;;11.11;52.27
47218;BME280;47282;53.362;-2.222;2022-10-17T18:55:38;101200.88;;;11.02;52.49
47218;BME280;47282;53.362;-2.222;2022-10-17T18:58:06;101211.73;;;10.94;52.56
47218;BME280;47282;53.362;-2.222;2022-10-17T19:00:34;101213.55;;;11.10;52.84
47218;BME280;47282;53.362;-2.222;2022-10-17T19:03:02;101216.18;;;10.84;52.91
47218;BME280;47282;53.362;-2.222;2022-10-17T19:05:30;101221.79;;;11.21;53.05
47218;BME280;47282;53.362;-2.222;2022-10-17T19:07:58;101219.76;;;10.92;53.18
47218;BME280;47282;53.362;-2.222;2022-10-17T19:10:26;101218.40;;;10.88;53.34
47218;BME280;47282;53.362;-2.222;2022-10-17T19:12:54;101217.19;;;10.58;53.46
47218;BME280;47282;53.362;-2.222;2022-10-17T19:15:22;101224.43;;;10.73;53.56
47218;BME280;47282;53.362;-2.222;2022-10-17T19:17:50;101230.96;;;10.44;53.43
47218;BME280;47282;53.362;-2.222;2022-10-17T19:20:18;101244.91;;;10.59;53.49
47218;BME280;47282;53.362;-2.222;2022-10-17T19:22:46;101253.44;;;10.50;53.58
47218;BME280;47282;53.362;-2.222;2022-10-17T19:25:14;101261.06;;;10.66;53.61
47218;BME280;47282;53.362;-2.222;2022-10-17T19:27:42;101267.75;;;10.32;53.70
47218;BME280;47282;53.362;-2.222;2022-10-17T19:30:10;101274.01;;;10.42;53.88
47218;BME280;47282;53.362;-2.222;2022-10-17T19:32:39;101284.80;;;10.31;53.97
47218;BME280;47282;53.362;-2.222;2022-10-17T19:35:08;101284.59;;;10.17;54.12
47218;BME280;47282;53.362;-2.222;2022-10-17T19:37:36;101284.88;;;10.05;54.27
47218;BME280;47282;53.362;-2.222;2022-10-17T19:40:05;101286.76;;;9.93;54.44
47218;BME280;47282;53.362;-2.222;2022-10-17T19:42:34;101294.94;;;9.79;54.57
47218;BME280;47282;53.362;-2.222;2022-10-17T19:45:02;101302.29;;;9.64;54.71
47218;BME280;47282;53.362;-2.222;2022-10-17T19:47:30;101307.12;;;9.75;54.85
47218;BME280;47282;53.362;-2.222;2022-10-17T19:49:58;101309.30;;;9.35;55.06
47218;BME280;47282;53.362;-2.222;2022-10-17T19:52:26;101309.13;;;9.22;55.23
47218;BME280;47282;53.362;-2.222;2022-10-17T19:54:54;101307.40;;;9.36;55.37
47218;BME280;47282;53.362;-2.222;2022-10-17T19:57:22;101305.65;;;9.22;55.56
47218;BME280;47282;53.362;-2.222;2022-10-17T19:59:51;101310.59;;;9.33;55.63
47218;BME280;47282;53.362;-2.222;2022-10-17T20:02:19;101309.23;;;9.20;55.81
47218;BME280;47282;53.362;-2.222;2022-10-17T20:04:47;101309.68;;;9.09;55.98
47218;BME280;47282;53.362;-2.222;2022-10-17T20:07:15;101312.11;;;8.98;56.13
47218;BME280;47282;53.362;-2.222;2022-10-17T20:09:43;101313.42;;;8.87;56.33
47218;BME280;47282;53.362;-2.222;2022-10-17T20:12:11;101315.46;;;8.76;56.55
47218;BME280;47282;53.362;-2.222;2022-10-17T20:14:39;101313.37;;;8.67;56.57
47218;BME280;47282;53.362;-2.222;2022-10-17T20:17:07;101314.26;;;8.57;56.74
47218;BME280;47282;53.362;-2.222;2022-10-17T20:19:35;101315.83;;;8.49;56.89
47218;BME280;47282;53.362;-2.222;2022-10-17T20:22:03;101319.15;;;8.40;57.08
47218;BME280;47282;53.362;-2.222;2022-10-17T20:24:31;101318.60;;;8.33;57.12
47218;BME280;47282;53.362;-2.222;2022-10-17T20:26:59;101322.60;;;8.25;57.23
47218;BME280;47282;53.362;-2.222;2022-10-17T20:29:27;101332.42;;;8.17;57.41
47218;BME280;47282;53.362;-2.222;2022-10-17T20:31:55;101337.87;;;8.59;57.61
47218;BME280;47282;53.362;-2.222;2022-10-17T20:34:23;101340.48;;;8.26;57.77
47218;BME280;47282;53.362;-2.222;2022-10-17T20:36:51;101346.46;;;8.21;57.91
47218;BME280;47282;53.362;-2.222;2022-10-17T20:39:19;101352.20;;;8.44;58.05
47218;BME280;47282;53.362;-2.222;2022-10-17T20:41:48;101356.53;;;8.13;58.10
47218;BME280;47282;53.362;-2.222;2022-10-17T20:44:16;101357.67;;;8.08;58.30
47218;BME280;47282;53.362;-2.222;2022-10-17T20:46:44;101358.16;;;8.31;58.48
47218;BME280;47282;53.362;-2.222;2022-10-17T20:49:15;101359.46;;;8.02;58.65
47218;BME280;47282;53.362;-2.222;2022-10-17T20:51:43;101361.76;;;8.00;58.73
47218;BME280;47282;53.362;-2.222;2022-10-17T20:54:12;101359.00;;;8.00;58.70
47218;BME280;47282;53.362;-2.222;2022-10-17T20:56:40;101358.98;;;8.25;58.79
47218;BME280;47282;53.362;-2.222;2022-10-17T20:59:11;101357.62;;;7.98;58.82
47218;BME280;47282;53.362;-2.222;2022-10-17T21:01:39;101360.10;;;7.95;58.90
47218;BME280;47282;53.362;-2.222;2022-10-17T21:04:07;101366.02;;;7.89;59.08
47218;BME280;47282;53.362;-2.222;2022-10-17T21:06:35;101364.81;;;7.85;59.13
47218;BME280;47282;53.362;-2.222;2022-10-17T21:09:04;101367.02;;;8.08;59.31
47218;BME280;47282;53.362;-2.222;2022-10-17T21:11:33;101372.71;;;7.78;59.38
47218;BME280;47282;53.362;-2.222;2022-10-17T21:14:02;101375.90;;;8.00;59.51
47218;BME280;47282;53.362;-2.222;2022-10-17T21:16:33;101380.01;;;7.95;59.65
47218;BME280;47282;53.362;-2.222;2022-10-17T21:19:04;101381.99;;;7.65;59.74
47218;BME280;47282;53.362;-2.222;2022-10-17T21:21:34;101388.58;;;7.61;59.74
47218;BME280;47282;53.362;-2.222;2022-10-17T21:24:05;101399.93;;;7.82;59.81
47218;BME280;47282;53.362;-2.222;2022-10-17T21:26:35;101404.04;;;7.77;60.00
47218;BME280;47282;53.362;-2.222;2022-10-17T21:29:04;101407.98;;;7.71;60.15
47218;BME280;47282;53.362;-2.222;2022-10-17T21:31:33;101407.14;;;7.66;60.23
47218;BME280;47282;53.362;-2.222;2022-10-17T21:34:06;101404.57;;;7.60;60.36
47218;BME280;47282;53.362;-2.222;2022-10-17T21:36:34;101403.49;;;7.56;60.41
47218;BME280;47282;53.362;-2.222;2022-10-17T21:39:03;101403.34;;;7.54;60.49
47218;BME280;47282;53.362;-2.222;2022-10-17T21:41:31;101404.45;;;7.52;60.58
47218;BME280;47282;53.362;-2.222;2022-10-17T21:44:01;101402.14;;;7.49;60.66
47218;BME280;47282;53.362;-2.222;2022-10-17T21:46:29;101406.14;;;7.47;60.75
47218;BME280;47282;53.362;-2.222;2022-10-17T21:48:59;101412.46;;;7.44;60.77
47218;BME280;47282;53.362;-2.222;2022-10-17T21:51:27;101419.71;;;7.42;60.93
47218;BME280;47282;53.362;-2.222;2022-10-17T21:53:56;101428.40;;;7.39;60.99
47218;BME280;47282;53.362;-2.222;2022-10-17T21:56:28;101436.42;;;7.35;60.99
47218;BME280;47282;53.362;-2.222;2022-10-17T21:58:57;101443.01;;;7.26;61.15
47218;BME280;47282;53.362;-2.222;2022-10-17T22:01:27;101444.48;;;7.22;61.21
47218;BME280;47282;53.362;-2.222;2022-10-17T22:03:57;101443.14;;;7.37;61.33
47218;BME280;47282;53.362;-2.222;2022-10-17T22:06:28;101439.38;;;7.33;61.43
47218;BME280;47282;53.362;-2.222;2022-10-17T22:08:56;101433.24;;;7.08;61.66
47218;BME280;47282;53.362;-2.222;2022-10-17T22:11:27;101430.91;;;7.09;61.73
47218;BME280;47282;53.362;-2.222;2022-10-17T22:13:57;101429.46;;;7.09;61.72
47218;BME280;47282;53.362;-2.222;2022-10-17T22:16:26;101429.51;;;7.08;61.73
47218;BME280;47282;53.362;-2.222;2022-10-17T22:18:55;101432.38;;;7.03;61.81
47218;BME280;47282;53.362;-2.222;2022-10-17T22:21:24;101439.21;;;6.99;61.94
47218;BME280;47282;53.362;-2.222;2022-10-17T22:23:55;101443.78;;;6.96;61.99
47218;BME280;47282;53.362;-2.222;2022-10-17T22:26:23;101451.02;;;7.43;62.15
47218;BME280;47282;53.362;-2.222;2022-10-17T22:28:52;101458.50;;;7.15;62.24
47218;BME280;47282;53.362;-2.222;2022-10-17T22:31:20;101459.12;;;7.43;62.32
47218;BME280;47282;53.362;-2.222;2022-10-17T22:33:48;101456.65;;;6.94;62.48
47218;BME280;47282;53.362;-2.222;2022-10-17T22:36:16;101451.28;;;7.17;62.49
47218;BME280;47282;53.362;-2.222;2022-10-17T22:38:44;101445.37;;;6.94;62.63
47218;BME280;47282;53.362;-2.222;2022-10-17T22:41:12;101446.75;;;6.96;62.79
47218;BME280;47282;53.362;-2.222;2022-10-17T22:43:40;101450.88;;;7.48;62.73
47218;BME280;47282;53.362;-2.222;2022-10-17T22:46:09;101454.87;;;7.23;62.74
47218;BME280;47282;53.362;-2.222;2022-10-17T22:48:38;101458.58;;;7.03;62.91
47218;BME280;47282;53.362;-2.222;2022-10-17T22:51:07;101465.75;;;6.78;62.98
47218;BME280;47282;53.362;-2.222;2022-10-17T22:53:35;101468.79;;;7.06;63.12
47218;BME280;47282;53.362;-2.222;2022-10-17T22:56:05;101470.08;;;7.57;63.12
47218;BME280;47282;53.362;-2.222;2022-10-17T22:58:34;101469.19;;;7.08;63.35
47218;BME280;47282;53.362;-2.222;2022-10-17T23:01:03;101466.31;;;7.09;63.30
47218;BME280;47282;53.362;-2.222;2022-10-17T23:03:32;101465.55;;;7.34;63.20
47218;BME280;47282;53.362;-2.222;2022-10-17T23:06:00;101466.34;;;7.32;63.40
47218;BME280;47282;53.362;-2.222;2022-10-17T23:08:29;101465.62;;;7.10;63.34
47218;BME280;47282;53.362;-2.222;2022-10-17T23:10:57;101464.17;;;7.10;63.39
47218;BME280;47282;53.362;-2.222;2022-10-17T23:13:25;101465.17;;;7.60;63.41
47218;BME280;47282;53.362;-2.222;2022-10-17T23:15:54;101468.20;;;7.61;63.36
47218;BME280;47282;53.362;-2.222;2022-10-17T23:18:24;101472.12;;;7.60;63.48
47218;BME280;47282;53.362;-2.222;2022-10-17T23:20:53;101473.49;;;6.84;63.45
47218;BME280;47282;53.362;-2.222;2022-10-17T23:23:21;101477.22;;;7.07;63.58
47218;BME280;47282;53.362;-2.222;2022-10-17T23:25:49;101484.35;;;7.06;63.59
47218;BME280;47282;53.362;-2.222;2022-10-17T23:28:18;101490.35;;;7.03;63.76
47218;BME280;47282;53.362;-2.222;2022-10-17T23:30:46;101494.75;;;7.03;63.78
47218;BME280;47282;53.362;-2.222;2022-10-17T23:33:14;101499.01;;;7.24;63.83
47218;BME280;47282;53.362;-2.222;2022-10-17T23:35:42;101503.93;;;6.99;63.89
47218;BME280;47282;53.362;-2.222;2022-10-17T23:38:10;101504.98;;;6.70;63.94
47218;BME280;47282;53.362;-2.222;2022-10-17T23:40:38;101502.30;;;6.97;63.87
47218;BME280;47282;53.362;-2.222;2022-10-17T23:43:06;101502.39;;;7.16;63.94
47218;BME280;47282;53.362;-2.222;2022-10-17T23:45:34;101502.70;;;7.14;64.12
47218;BME280;47282;53.362;-2.222;2022-10-17T23:48:02;101503.08;;;7.13;64.16
47218;BME280;47282;53.362;-2.222;2022-10-17T23:50:30;101511.80;;;6.89;64.26
47218;BME280;47282;53.362;-2.222;2022-10-17T23:52:58;101516.41;;;6.88;64.31
47218;BME280;47282;53.362;-2.222;2022-10-17T23:55:26;101520.36;;;7.10;64.43
47218;BME280;47282;53.362;-2.222;2022-10-17T23:57:54;101520.66;;;7.34;64.51
